sensor_id;sensor_type;location;lat;lon;timestamp;P1;durP1;ratioP1;P2;durP2;ratioP2
27666;SDS011;15074;50.940;5.282;2022-12-07T00:01:39;29.70;;;19.98;;
27666;SDS011;15074;50.940;5.282;2022-12-07T00:04:07;36.13;;;22.23;;
27666;SDS011;15074;50.940;5.282;2022-12-07T00:06:39;32.75;;;20.65;;
27666;SDS011;15074;50.940;5.282;2022-12-07T00:09:07;24.25;;;19.52;;
27666;SDS011;15074;50.940;5.282;2022-12-07T00:11:38;31.25;;;20.42;;
27666;SDS011;15074;50.940;5.282;2022-12-07T00:14:05;30.98;;;21.08;;
27666;SDS011;15074;50.940;5.282;2022-12-07T00:16:33;27.23;;;20.10;;
27666;SDS011;15074;50.940;5.282;2022-12-07T00:19:00;34.00;;;22.17;;
27666;SDS011;15074;50.940;5.282;2022-12-07T00:21:26;36.35;;;22.08;;
27666;SDS011;15074;50.940;5.282;2022-12-07T00:23:54;39.22;;;20.75;;
27666;SDS011;15074;50.940;5.282;2022-12-07T00:26:22;25.50;;;19.83;;
27666;SDS011;15074;50.940;5.282;2022-12-07T00:28:53;30.70;;;20.02;;
27666;SDS011;15074;50.940;5.282;2022-12-07T00:33:47;29.33;;;19.63;;
27666;SDS011;15074;50.940;5.282;2022-12-07T00:36:15;29.65;;;19.85;;
27666;SDS011;15074;50.940;5.282;2022-12-07T00:38:42;24.08;;;19.95;;
27666;SDS011;15074;50.940;5.282;2022-12-07T00:41:13;34.95;;;21.63;;
27666;SDS011;15074;50.940;5.282;2022-12-07T00:43:41;26.05;;;20.30;;
27666;SDS011;15074;50.940;5.282;2022-12-07T00:46:08;38.63;;;22.95;;
27666;SDS011;15074;50.940;5.282;2022-12-07T00:48:34;34.55;;;22.58;;
27666;SDS011;15074;50.940;5.282;2022-12-07T00:51:00;33.97;;;22.63;;
27666;SDS011;15074;50.940;5.282;2022-12-07T00:53:26;29.95;;;21.40;;
27666;SDS011;15074;50.940;5.282;2022-12-07T00:55:52;31.98;;;20.52;;
27666;SDS011;15074;50.940;5.282;2022-12-07T00:58:19;33.30;;;21.90;;
27666;SDS011;15074;50.940;5.282;2022-12-07T01:00:44;30.85;;;22.08;;
27666;SDS011;15074;50.940;5.282;2022-12-07T01:03:11;30.13;;;20.73;;
27666;SDS011;15074;50.940;5.282;2022-12-07T01:05:38;31.77;;;21.35;;
27666;SDS011;15074;50.940;5.282;2022-12-07T01:08:04;29.15;;;19.67;;
27666;SDS011;15074;50.940;5.282;2022-12-07T01:10:31;21.83;;;19.08;;
27666;SDS011;15074;50.940;5.282;2022-12-07T01:12:57;30.17;;;20.33;;
27666;SDS011;15074;50.940;5.282;2022-12-07T01:15:23;32.45;;;20.65;;
27666;SDS011;15074;50.940;5.282;2022-12-07T01:17:49;29.23;;;21.05;;
27666;SDS011;15074;50.940;5.282;2022-12-07T01:20:15;29.38;;;22.10;;
27666;SDS011;15074;50.940;5.282;2022-12-07T01:22:42;24.83;;;20.50;;
27666;SDS011;15074;50.940;5.282;2022-12-07T01:25:09;21.88;;;19.52;;
27666;SDS011;15074;50.940;5.282;2022-12-07T01:27:36;36.80;;;19.88;;
27666;SDS011;15074;50.940;5.282;2022-12-07T01:30:04;22.50;;;19.33;;
27666;SDS011;15074;50.940;5.282;2022-12-07T01:32:31;28.85;;;19.45;;
27666;SDS011;15074;50.940;5.282;2022-12-07T01:34:57;27.40;;;20.20;;
27666;SDS011;15074;50.940;5.282;2022-12-07T01:37:23;30.50;;;20.35;;
27666;SDS011;15074;50.940;5.282;2022-12-07T01:39:49;27.30;;;20.17;;
27666;SDS011;15074;50.940;5.282;2022-12-07T01:42:15;23.55;;;19.33;;
27666;SDS011;15074;50.940;5.282;2022-12-07T01:47:45;24.10;;;19.98;;
27666;SDS011;15074;50.940;5.282;2022-12-07T01:50:16;26.10;;;20.13;;
27666;SDS011;15074;50.940;5.282;2022-12-07T01:52:42;24.38;;;19.30;;
27666;SDS011;15074;50.940;5.282;2022-12-07T01:55:10;26.85;;;19.80;;
27666;SDS011;15074;50.940;5.282;2022-12-07T01:57:40;28.05;;;18.95;;
27666;SDS011;15074;50.940;5.282;2022-12-07T02:00:08;21.77;;;19.45;;
27666;SDS011;15074;50.940;5.282;2022-12-07T02:02:37;32.15;;;19.90;;
27666;SDS011;15074;50.940;5.282;2022-12-07T02:05:27;36.45;;;20.52;;
27666;SDS011;15074;50.940;5.282;2022-12-07T02:07:53;28.42;;;19.85;;
27666;SDS011;15074;50.940;5.282;2022-12-07T02:10:21;26.17;;;20.10;;
27666;SDS011;15074;50.940;5.282;2022-12-07T02:12:50;24.98;;;19.80;;
27666;SDS011;15074;50.940;5.282;2022-12-07T02:15:23;28.73;;;19.95;;
27666;SDS011;15074;50.940;5.282;2022-12-07T02:18:06;26.15;;;20.73;;
27666;SDS011;15074;50.940;5.282;2022-12-07T02:20:50;35.08;;;20.13;;
27666;SDS011;15074;50.940;5.282;2022-12-07T02:23:38;29.05;;;21.52;;
27666;SDS011;15074;50.940;5.282;2022-12-07T02:26:19;33.47;;;19.50;;
27666;SDS011;15074;50.940;5.282;2022-12-07T02:29:15;31.75;;;20.60;;
27666;SDS011;15074;50.940;5.282;2022-12-07T02:34:55;24.55;;;20.02;;
27666;SDS011;15074;50.940;5.282;2022-12-07T02:40:43;24.92;;;19.05;;
27666;SDS011;15074;50.940;5.282;2022-12-07T02:43:24;23.30;;;19.40;;
27666;SDS011;15074;50.940;5.282;2022-12-07T02:45:57;33.40;;;19.95;;
27666;SDS011;15074;50.940;5.282;2022-12-07T02:48:28;27.13;;;20.33;;
27666;SDS011;15074;50.940;5.282;2022-12-07T02:50:58;26.67;;;20.52;;
27666;SDS011;15074;50.940;5.282;2022-12-07T02:53:37;23.45;;;20.17;;
27666;SDS011;15074;50.940;5.282;2022-12-07T02:56:11;26.67;;;21.33;;
27666;SDS011;15074;50.940;5.282;2022-12-07T03:01:46;26.70;;;19.48;;
27666;SDS011;15074;50.940;5.282;2022-12-07T03:07:20;30.67;;;20.70;;
27666;SDS011;15074;50.940;5.282;2022-12-07T03:12:45;28.15;;;20.92;;
27666;SDS011;15074;50.940;5.282;2022-12-07T03:18:00;25.13;;;20.33;;
27666;SDS011;15074;50.940;5.282;2022-12-07T03:20:28;29.42;;;22.40;;
27666;SDS011;15074;50.940;5.282;2022-12-07T03:22:57;34.55;;;21.90;;
27666;SDS011;15074;50.940;5.282;2022-12-07T03:25:24;34.33;;;23.25;;
27666;SDS011;15074;50.940;5.282;2022-12-07T03:27:53;34.90;;;23.05;;
27666;SDS011;15074;50.940;5.282;2022-12-07T03:30:23;41.15;;;24.83;;
27666;SDS011;15074;50.940;5.282;2022-12-07T03:33:02;35.20;;;23.35;;
27666;SDS011;15074;50.940;5.282;2022-12-07T03:35:40;36.42;;;23.17;;
27666;SDS011;15074;50.940;5.282;2022-12-07T03:38:23;36.58;;;22.98;;
27666;SDS011;15074;50.940;5.282;2022-12-07T03:41:00;28.80;;;22.13;;
27666;SDS011;15074;50.940;5.282;2022-12-07T03:43:47;31.30;;;22.80;;
27666;SDS011;15074;50.940;5.282;2022-12-07T03:51:27;34.15;;;24.38;;
27666;SDS011;15074;50.940;5.282;2022-12-07T03:54:09;38.55;;;24.23;;
27666;SDS011;15074;50.940;5.282;2022-12-07T03:56:51;38.63;;;24.08;;
27666;SDS011;15074;50.940;5.282;2022-12-07T03:59:19;34.72;;;23.65;;
27666;SDS011;15074;50.940;5.282;2022-12-07T04:01:48;36.42;;;23.88;;
27666;SDS011;15074;50.940;5.282;2022-12-07T04:04:22;43.20;;;26.58;;
27666;SDS011;15074;50.940;5.282;2022-12-07T04:06:49;42.15;;;25.60;;
27666;SDS011;15074;50.940;5.282;2022-12-07T04:09:15;35.10;;;24.73;;
27666;SDS011;15074;50.940;5.282;2022-12-07T04:11:41;37.58;;;24.10;;
27666;SDS011;15074;50.940;5.282;2022-12-07T04:14:07;32.97;;;23.92;;
27666;SDS011;15074;50.940;5.282;2022-12-07T04:19:11;34.38;;;22.92;;
27666;SDS011;15074;50.940;5.282;2022-12-07T04:21:38;38.70;;;24.38;;
27666;SDS011;15074;50.940;5.282;2022-12-07T04:24:04;37.40;;;23.40;;
27666;SDS011;15074;50.940;5.282;2022-12-07T04:26:30;40.22;;;25.40;;
27666;SDS011;15074;50.940;5.282;2022-12-07T04:28:56;51.00;;;26.02;;
27666;SDS011;15074;50.940;5.282;2022-12-07T04:31:22;40.45;;;27.02;;
27666;SDS011;15074;50.940;5.282;2022-12-07T04:33:47;37.03;;;25.20;;
27666;SDS011;15074;50.940;5.282;2022-12-07T04:36:13;38.45;;;24.02;;
27666;SDS011;15074;50.940;5.282;2022-12-07T04:38:39;35.75;;;24.27;;
27666;SDS011;15074;50.940;5.282;2022-12-07T04:41:05;34.42;;;23.70;;
27666;SDS011;15074;50.940;5.282;2022-12-07T04:43:32;41.08;;;25.40;;
27666;SDS011;15074;50.940;5.282;2022-12-07T04:45:58;44.38;;;28.10;;
27666;SDS011;15074;50.940;5.282;2022-12-07T04:48:23;48.45;;;26.35;;
27666;SDS011;15074;50.940;5.282;2022-12-07T04:50:49;48.10;;;26.23;;
27666;SDS011;15074;50.940;5.282;2022-12-07T04:53:15;60.33;;;28.45;;
27666;SDS011;15074;50.940;5.282;2022-12-07T04:55:40;50.97;;;28.85;;
27666;SDS011;15074;50.940;5.282;2022-12-07T04:58:06;48.08;;;27.95;;
27666;SDS011;15074;50.940;5.282;2022-12-07T05:00:32;60.33;;;28.38;;
27666;SDS011;15074;50.940;5.282;2022-12-07T05:02:58;52.08;;;29.35;;
27666;SDS011;15074;50.940;5.282;2022-12-07T05:05:23;40.55;;;27.25;;
27666;SDS011;15074;50.940;5.282;2022-12-07T05:07:49;45.53;;;27.55;;
27666;SDS011;15074;50.940;5.282;2022-12-07T05:10:15;49.63;;;28.02;;
27666;SDS011;15074;50.940;5.282;2022-12-07T05:12:41;51.33;;;28.80;;
27666;SDS011;15074;50.940;5.282;2022-12-07T05:15:07;58.88;;;30.60;;
27666;SDS011;15074;50.940;5.282;2022-12-07T05:17:33;45.25;;;27.67;;
27666;SDS011;15074;50.940;5.282;2022-12-07T05:19:58;61.63;;;31.75;;
27666;SDS011;15074;50.940;5.282;2022-12-07T05:22:24;62.67;;;30.75;;
27666;SDS011;15074;50.940;5.282;2022-12-07T05:24:53;49.85;;;29.00;;
27666;SDS011;15074;50.940;5.282;2022-12-07T05:27:19;54.25;;;29.33;;
27666;SDS011;15074;50.940;5.282;2022-12-07T05:29:45;48.13;;;28.52;;
27666;SDS011;15074;50.940;5.282;2022-12-07T05:32:11;58.70;;;29.60;;
27666;SDS011;15074;50.940;5.282;2022-12-07T05:34:36;61.88;;;31.42;;
27666;SDS011;15074;50.940;5.282;2022-12-07T05:37:02;61.15;;;29.77;;
27666;SDS011;15074;50.940;5.282;2022-12-07T05:39:28;58.10;;;30.02;;
27666;SDS011;15074;50.940;5.282;2022-12-07T05:41:53;56.38;;;30.58;;
27666;SDS011;15074;50.940;5.282;2022-12-07T05:44:44;51.42;;;29.55;;
27666;SDS011;15074;50.940;5.282;2022-12-07T05:47:11;51.95;;;29.42;;
27666;SDS011;15074;50.940;5.282;2022-12-07T05:49:38;55.78;;;29.55;;
27666;SDS011;15074;50.940;5.282;2022-12-07T05:52:04;61.72;;;30.77;;
27666;SDS011;15074;50.940;5.282;2022-12-07T05:54:30;51.60;;;29.38;;
27666;SDS011;15074;50.940;5.282;2022-12-07T05:56:56;48.92;;;28.00;;
27666;SDS011;15074;50.940;5.282;2022-12-07T05:59:22;55.30;;;29.40;;
27666;SDS011;15074;50.940;5.282;2022-12-07T06:01:49;55.40;;;29.80;;
27666;SDS011;15074;50.940;5.282;2022-12-07T06:04:19;57.83;;;30.23;;
27666;SDS011;15074;50.940;5.282;2022-12-07T06:06:45;61.17;;;29.65;;
27666;SDS011;15074;50.940;5.282;2022-12-07T06:09:11;52.30;;;30.63;;
27666;SDS011;15074;50.940;5.282;2022-12-07T06:11:38;48.67;;;27.45;;
27666;SDS011;15074;50.940;5.282;2022-12-07T06:14:23;42.15;;;26.60;;
27666;SDS011;15074;50.940;5.282;2022-12-07T06:16:49;45.17;;;25.60;;
27666;SDS011;15074;50.940;5.282;2022-12-07T06:19:14;41.30;;;25.17;;
27666;SDS011;15074;50.940;5.282;2022-12-07T06:21:40;43.33;;;26.13;;
27666;SDS011;15074;50.940;5.282;2022-12-07T06:24:06;35.22;;;24.50;;
27666;SDS011;15074;50.940;5.282;2022-12-07T06:26:32;38.47;;;24.52;;
27666;SDS011;15074;50.940;5.282;2022-12-07T06:28:58;41.65;;;25.38;;
27666;SDS011;15074;50.940;5.282;2022-12-07T06:31:24;36.35;;;24.50;;
27666;SDS011;15074;50.940;5.282;2022-12-07T06:33:49;40.28;;;25.58;;
27666;SDS011;15074;50.940;5.282;2022-12-07T06:36:15;44.75;;;24.88;;
27666;SDS011;15074;50.940;5.282;2022-12-07T06:38:40;43.10;;;24.55;;
27666;SDS011;15074;50.940;5.282;2022-12-07T06:41:06;35.72;;;24.98;;
27666;SDS011;15074;50.940;5.282;2022-12-07T06:43:32;47.97;;;26.45;;
27666;SDS011;15074;50.940;5.282;2022-12-07T06:45:58;53.92;;;27.92;;
27666;SDS011;15074;50.940;5.282;2022-12-07T06:48:23;62.08;;;32.63;;
27666;SDS011;15074;50.940;5.282;2022-12-07T06:50:49;57.40;;;31.65;;
27666;SDS011;15074;50.940;5.282;2022-12-07T06:53:15;55.60;;;29.40;;
27666;SDS011;15074;50.940;5.282;2022-12-07T06:55:40;51.95;;;28.77;;
27666;SDS011;15074;50.940;5.282;2022-12-07T06:58:07;44.58;;;27.08;;
27666;SDS011;15074;50.940;5.282;2022-12-07T07:00:33;44.88;;;25.98;;
27666;SDS011;15074;50.940;5.282;2022-12-07T07:03:00;41.15;;;25.05;;
27666;SDS011;15074;50.940;5.282;2022-12-07T07:05:26;36.67;;;24.17;;
27666;SDS011;15074;50.940;5.282;2022-12-07T07:07:51;36.95;;;24.60;;
27666;SDS011;15074;50.940;5.282;2022-12-07T07:10:17;37.35;;;24.77;;
27666;SDS011;15074;50.940;5.282;2022-12-07T07:12:43;33.25;;;23.23;;
27666;SDS011;15074;50.940;5.282;2022-12-07T07:15:08;42.25;;;23.05;;
27666;SDS011;15074;50.940;5.282;2022-12-07T07:17:36;40.50;;;24.48;;
27666;SDS011;15074;50.940;5.282;2022-12-07T07:20:02;33.97;;;23.02;;
27666;SDS011;15074;50.940;5.282;2022-12-07T07:22:28;38.25;;;22.17;;
27666;SDS011;15074;50.940;5.282;2022-12-07T07:24:53;33.03;;;22.80;;
27666;SDS011;15074;50.940;5.282;2022-12-07T07:27:19;34.00;;;22.40;;
27666;SDS011;15074;50.940;5.282;2022-12-07T07:29:44;51.97;;;23.65;;
27666;SDS011;15074;50.940;5.282;2022-12-07T07:32:10;35.92;;;22.98;;
27666;SDS011;15074;50.940;5.282;2022-12-07T07:34:36;31.63;;;23.00;;
27666;SDS011;15074;50.940;5.282;2022-12-07T07:37:01;44.63;;;24.00;;
27666;SDS011;15074;50.940;5.282;2022-12-07T07:39:27;41.22;;;24.15;;
27666;SDS011;15074;50.940;5.282;2022-12-07T07:41:53;41.95;;;24.88;;
27666;SDS011;15074;50.940;5.282;2022-12-07T07:44:18;39.90;;;23.85;;
27666;SDS011;15074;50.940;5.282;2022-12-07T07:46:50;40.33;;;22.35;;
27666;SDS011;15074;50.940;5.282;2022-12-07T07:49:15;43.38;;;23.48;;
27666;SDS011;15074;50.940;5.282;2022-12-07T07:51:41;41.63;;;25.15;;
27666;SDS011;15074;50.940;5.282;2022-12-07T07:54:07;45.55;;;24.67;;
27666;SDS011;15074;50.940;5.282;2022-12-07T07:56:32;42.38;;;24.70;;
27666;SDS011;15074;50.940;5.282;2022-12-07T07:58:58;49.95;;;25.45;;
27666;SDS011;15074;50.940;5.282;2022-12-07T08:01:23;42.83;;;24.42;;
27666;SDS011;15074;50.940;5.282;2022-12-07T08:03:49;38.28;;;23.30;;
27666;SDS011;15074;50.940;5.282;2022-12-07T08:06:15;39.95;;;22.70;;
27666;SDS011;15074;50.940;5.282;2022-12-07T08:08:40;44.70;;;26.55;;
27666;SDS011;15074;50.940;5.282;2022-12-07T08:11:08;40.50;;;24.75;;
27666;SDS011;15074;50.940;5.282;2022-12-07T08:13:34;42.30;;;22.67;;
27666;SDS011;15074;50.940;5.282;2022-12-07T08:16:07;36.70;;;23.95;;
27666;SDS011;15074;50.940;5.282;2022-12-07T08:18:35;30.17;;;22.25;;
27666;SDS011;15074;50.940;5.282;2022-12-07T08:21:02;33.33;;;23.23;;
27666;SDS011;15074;50.940;5.282;2022-12-07T08:23:28;38.25;;;22.85;;
27666;SDS011;15074;50.940;5.282;2022-12-07T08:25:55;32.67;;;22.42;;
27666;SDS011;15074;50.940;5.282;2022-12-07T08:28:25;36.38;;;23.25;;
27666;SDS011;15074;50.940;5.282;2022-12-07T08:30:50;42.60;;;22.67;;
27666;SDS011;15074;50.940;5.282;2022-12-07T08:33:16;35.95;;;21.75;;
27666;SDS011;15074;50.940;5.282;2022-12-07T08:35:42;35.30;;;21.90;;
27666;SDS011;15074;50.940;5.282;2022-12-07T08:38:07;35.25;;;21.10;;
27666;SDS011;15074;50.940;5.282;2022-12-07T08:40:33;32.30;;;21.60;;
27666;SDS011;15074;50.940;5.282;2022-12-07T08:43:00;27.40;;;20.42;;
27666;SDS011;15074;50.940;5.282;2022-12-07T08:45:25;23.20;;;18.85;;
27666;SDS011;15074;50.940;5.282;2022-12-07T08:47:58;23.08;;;18.30;;
27666;SDS011;15074;50.940;5.282;2022-12-07T08:50:32;36.45;;;19.60;;
27666;SDS011;15074;50.940;5.282;2022-12-07T08:52:59;22.33;;;17.75;;
27666;SDS011;15074;50.940;5.282;2022-12-07T08:55:26;21.00;;;18.65;;
27666;SDS011;15074;50.940;5.282;2022-12-07T08:57:53;28.05;;;21.27;;
27666;SDS011;15074;50.940;5.282;2022-12-07T09:00:19;22.48;;;17.33;;
27666;SDS011;15074;50.940;5.282;2022-12-07T09:02:44;19.23;;;15.80;;
27666;SDS011;15074;50.940;5.282;2022-12-07T09:05:11;20.08;;;18.13;;
27666;SDS011;15074;50.940;5.282;2022-12-07T09:07:39;18.15;;;15.88;;
27666;SDS011;15074;50.940;5.282;2022-12-07T09:10:06;17.13;;;12.80;;
27666;SDS011;15074;50.940;5.282;2022-12-07T09:12:32;15.38;;;12.02;;
27666;SDS011;15074;50.940;5.282;2022-12-07T09:14:58;12.65;;;11.55;;
27666;SDS011;15074;50.940;5.282;2022-12-07T09:17:25;12.55;;;11.40;;
27666;SDS011;15074;50.940;5.282;2022-12-07T09:19:51;12.05;;;10.85;;
27666;SDS011;15074;50.940;5.282;2022-12-07T09:22:17;13.73;;;11.40;;
27666;SDS011;15074;50.940;5.282;2022-12-07T09:24:43;16.70;;;12.65;;
27666;SDS011;15074;50.940;5.282;2022-12-07T09:27:10;14.13;;;12.48;;
27666;SDS011;15074;50.940;5.282;2022-12-07T09:29:36;14.27;;;12.98;;
27666;SDS011;15074;50.940;5.282;2022-12-07T09:32:02;13.75;;;12.00;;
27666;SDS011;15074;50.940;5.282;2022-12-07T09:34:30;17.48;;;12.73;;
27666;SDS011;15074;50.940;5.282;2022-12-07T09:36:56;20.13;;;14.52;;
27666;SDS011;15074;50.940;5.282;2022-12-07T09:39:22;15.45;;;13.13;;
27666;SDS011;15074;50.940;5.282;2022-12-07T09:41:48;15.48;;;12.32;;
27666;SDS011;15074;50.940;5.282;2022-12-07T09:44:17;16.23;;;12.27;;
27666;SDS011;15074;50.940;5.282;2022-12-07T09:46:46;15.65;;;11.52;;
27666;SDS011;15074;50.940;5.282;2022-12-07T09:49:20;17.88;;;13.05;;
27666;SDS011;15074;50.940;5.282;2022-12-07T09:51:47;19.02;;;13.63;;
27666;SDS011;15074;50.940;5.282;2022-12-07T09:54:24;12.70;;;11.07;;
27666;SDS011;15074;50.940;5.282;2022-12-07T09:56:50;15.02;;;12.15;;
27666;SDS011;15074;50.940;5.282;2022-12-07T09:59:18;15.68;;;12.85;;
27666;SDS011;15074;50.940;5.282;2022-12-07T10:01:45;13.07;;;11.32;;
27666;SDS011;15074;50.940;5.282;2022-12-07T10:04:14;11.32;;;10.23;;
27666;SDS011;15074;50.940;5.282;2022-12-07T10:06:44;12.15;;;7.72;;
27666;SDS011;15074;50.940;5.282;2022-12-07T10:09:11;9.40;;;7.28;;
27666;SDS011;15074;50.940;5.282;2022-12-07T10:14:23;8.52;;;7.53;;
27666;SDS011;15074;50.940;5.282;2022-12-07T10:16:49;9.23;;;7.55;;
27666;SDS011;15074;50.940;5.282;2022-12-07T10:19:31;9.60;;;8.20;;
27666;SDS011;15074;50.940;5.282;2022-12-07T10:22:07;8.95;;;8.13;;
27666;SDS011;15074;50.940;5.282;2022-12-07T10:24:39;9.15;;;8.27;;
27666;SDS011;15074;50.940;5.282;2022-12-07T10:30:03;9.70;;;8.18;;
27666;SDS011;15074;50.940;5.282;2022-12-07T10:32:35;7.80;;;6.88;;
27666;SDS011;15074;50.940;5.282;2022-12-07T10:37:48;8.70;;;7.00;;
27666;SDS011;15074;50.940;5.282;2022-12-07T10:43:05;11.48;;;6.47;;
27666;SDS011;15074;50.940;5.282;2022-12-07T10:48:36;9.27;;;6.53;;
27666;SDS011;15074;50.940;5.282;2022-12-07T10:51:43;12.40;;;7.28;;
27666;SDS011;15074;50.940;5.282;2022-12-07T10:57:01;7.20;;;6.07;;
27666;SDS011;15074;50.940;5.282;2022-12-07T11:05:53;6.90;;;5.72;;
27666;SDS011;15074;50.940;5.282;2022-12-07T11:08:05;6.82;;;6.10;;
27666;SDS011;15074;50.940;5.282;2022-12-07T11:24:18;5.95;;;5.32;;
27666;SDS011;15074;50.940;5.282;2022-12-07T11:29:57;7.78;;;4.85;;
27666;SDS011;15074;50.940;5.282;2022-12-07T11:32:45;8.55;;;3.92;;
27666;SDS011;15074;50.940;5.282;2022-12-07T11:35:55;6.90;;;4.97;;
27666;SDS011;15074;50.940;5.282;2022-12-07T11:38:43;6.78;;;4.45;;
27666;SDS011;15074;50.940;5.282;2022-12-07T11:41:15;7.35;;;4.78;;
27666;SDS011;15074;50.940;5.282;2022-12-07T11:46:29;8.65;;;4.22;;
27666;SDS011;15074;50.940;5.282;2022-12-07T11:49:24;7.28;;;4.10;;
27666;SDS011;15074;50.940;5.282;2022-12-07T11:52:02;9.63;;;5.63;;
27666;SDS011;15074;50.940;5.282;2022-12-07T11:54:39;6.72;;;4.85;;
27666;SDS011;15074;50.940;5.282;2022-12-07T11:57:10;7.65;;;5.43;;
27666;SDS011;15074;50.940;5.282;2022-12-07T11:59:45;13.35;;;5.95;;
27666;SDS011;15074;50.940;5.282;2022-12-07T12:02:16;6.20;;;4.50;;
27666;SDS011;15074;50.940;5.282;2022-12-07T12:07:41;7.15;;;4.75;;
27666;SDS011;15074;50.940;5.282;2022-12-07T12:12:57;7.38;;;4.57;;
27666;SDS011;15074;50.940;5.282;2022-12-07T12:15:57;5.78;;;4.82;;
27666;SDS011;15074;50.940;5.282;2022-12-07T12:21:02;7.85;;;5.00;;
27666;SDS011;15074;50.940;5.282;2022-12-07T12:26:01;4.97;;;4.32;;
27666;SDS011;15074;50.940;5.282;2022-12-07T12:33:46;6.88;;;3.42;;
27666;SDS011;15074;50.940;5.282;2022-12-07T12:46:57;3.85;;;2.97;;
27666;SDS011;15074;50.940;5.282;2022-12-07T12:52:55;7.22;;;2.78;;
27666;SDS011;15074;50.940;5.282;2022-12-07T12:55:27;4.25;;;2.17;;
27666;SDS011;15074;50.940;5.282;2022-12-07T13:00:47;7.00;;;2.28;;
27666;SDS011;15074;50.940;5.282;2022-12-07T13:03:34;6.22;;;2.00;;
27666;SDS011;15074;50.940;5.282;2022-12-07T13:09:00;8.15;;;2.60;;
27666;SDS011;15074;50.940;5.282;2022-12-07T13:16:59;5.70;;;2.88;;
27666;SDS011;15074;50.940;5.282;2022-12-07T13:24:56;4.47;;;2.63;;
27666;SDS011;15074;50.940;5.282;2022-12-07T13:27:22;3.13;;;2.55;;
27666;SDS011;15074;50.940;5.282;2022-12-07T13:29:51;6.43;;;2.38;;
27666;SDS011;15074;50.940;5.282;2022-12-07T13:32:23;4.30;;;2.15;;
27666;SDS011;15074;50.940;5.282;2022-12-07T13:34:54;4.20;;;1.88;;
27666;SDS011;15074;50.940;5.282;2022-12-07T13:37:32;3.47;;;2.00;;
27666;SDS011;15074;50.940;5.282;2022-12-07T13:42:25;2.58;;;1.40;;
27666;SDS011;15074;50.940;5.282;2022-12-07T13:44:59;5.35;;;2.10;;
27666;SDS011;15074;50.940;5.282;2022-12-07T13:47:43;5.10;;;1.23;;
27666;SDS011;15074;50.940;5.282;2022-12-07T13:50:24;5.30;;;1.60;;
27666;SDS011;15074;50.940;5.282;2022-12-07T13:52:54;2.80;;;1.33;;
27666;SDS011;15074;50.940;5.282;2022-12-07T13:55:21;4.68;;;2.30;;
27666;SDS011;15074;50.940;5.282;2022-12-07T13:57:51;8.15;;;3.80;;
27666;SDS011;15074;50.940;5.282;2022-12-07T14:00:19;6.32;;;3.30;;
27666;SDS011;15074;50.940;5.282;2022-12-07T14:02:55;7.80;;;3.22;;
27666;SDS011;15074;50.940;5.282;2022-12-07T14:05:36;7.07;;;4.50;;
27666;SDS011;15074;50.940;5.282;2022-12-07T14:08:04;7.10;;;5.28;;
27666;SDS011;15074;50.940;5.282;2022-12-07T14:15:55;5.93;;;4.50;;
27666;SDS011;15074;50.940;5.282;2022-12-07T14:18:29;9.13;;;5.23;;
27666;SDS011;15074;50.940;5.282;2022-12-07T14:21:05;11.88;;;5.43;;
27666;SDS011;15074;50.940;5.282;2022-12-07T14:23:31;8.80;;;5.40;;
27666;SDS011;15074;50.940;5.282;2022-12-07T14:26:13;9.35;;;4.78;;
27666;SDS011;15074;50.940;5.282;2022-12-07T14:28:40;5.18;;;4.53;;
27666;SDS011;15074;50.940;5.282;2022-12-07T14:31:14;12.37;;;6.37;;
27666;SDS011;15074;50.940;5.282;2022-12-07T14:33:42;7.65;;;5.97;;
27666;SDS011;15074;50.940;5.282;2022-12-07T14:36:11;9.23;;;6.55;;
27666;SDS011;15074;50.940;5.282;2022-12-07T14:38:37;7.90;;;6.30;;
27666;SDS011;15074;50.940;5.282;2022-12-07T14:41:04;10.57;;;7.25;;
27666;SDS011;15074;50.940;5.282;2022-12-07T14:43:50;8.50;;;6.18;;
27666;SDS011;15074;50.940;5.282;2022-12-07T14:46:15;9.38;;;6.35;;
27666;SDS011;15074;50.940;5.282;2022-12-07T14:48:41;8.30;;;6.18;;
27666;SDS011;15074;50.940;5.282;2022-12-07T14:51:07;25.58;;;16.95;;
27666;SDS011;15074;50.940;5.282;2022-12-07T14:53:39;12.98;;;11.63;;
27666;SDS011;15074;50.940;5.282;2022-12-07T14:56:11;11.48;;;7.40;;
27666;SDS011;15074;50.940;5.282;2022-12-07T14:58:36;11.25;;;10.20;;
27666;SDS011;15074;50.940;5.282;2022-12-07T15:01:02;9.90;;;9.00;;
27666;SDS011;15074;50.940;5.282;2022-12-07T15:03:33;10.00;;;9.00;;
27666;SDS011;15074;50.940;5.282;2022-12-07T15:06:00;7.95;;;7.00;;
27666;SDS011;15074;50.940;5.282;2022-12-07T15:08:26;9.05;;;7.82;;
27666;SDS011;15074;50.940;5.282;2022-12-07T15:10:52;8.43;;;7.45;;
27666;SDS011;15074;50.940;5.282;2022-12-07T15:13:17;9.85;;;7.53;;
27666;SDS011;15074;50.940;5.282;2022-12-07T15:16:02;10.68;;;6.80;;
27666;SDS011;15074;50.940;5.282;2022-12-07T15:18:27;7.53;;;6.75;;
27666;SDS011;15074;50.940;5.282;2022-12-07T15:20:53;11.20;;;6.43;;
27666;SDS011;15074;50.940;5.282;2022-12-07T15:23:19;11.30;;;6.70;;
27666;SDS011;15074;50.940;5.282;2022-12-07T15:25:46;7.57;;;6.28;;
27666;SDS011;15074;50.940;5.282;2022-12-07T15:28:13;7.25;;;5.85;;
27666;SDS011;15074;50.940;5.282;2022-12-07T15:30:40;10.88;;;6.10;;
27666;SDS011;15074;50.940;5.282;2022-12-07T15:33:08;8.68;;;7.20;;
27666;SDS011;15074;50.940;5.282;2022-12-07T15:35:38;12.13;;;9.43;;
27666;SDS011;15074;50.940;5.282;2022-12-07T15:38:04;10.80;;;8.00;;
27666;SDS011;15074;50.940;5.282;2022-12-07T15:40:30;13.05;;;7.30;;
27666;SDS011;15074;50.940;5.282;2022-12-07T15:42:56;7.97;;;6.72;;
27666;SDS011;15074;50.940;5.282;2022-12-07T15:45:22;7.82;;;6.32;;
27666;SDS011;15074;50.940;5.282;2022-12-07T15:47:47;5.60;;;5.00;;
27666;SDS011;15074;50.940;5.282;2022-12-07T15:50:14;6.88;;;6.13;;
27666;SDS011;15074;50.940;5.282;2022-12-07T15:52:41;5.97;;;4.18;;
27666;SDS011;15074;50.940;5.282;2022-12-07T15:55:07;4.55;;;4.10;;
27666;SDS011;15074;50.940;5.282;2022-12-07T15:57:35;4.37;;;3.80;;
27666;SDS011;15074;50.940;5.282;2022-12-07T16:00:02;5.60;;;4.10;;
27666;SDS011;15074;50.940;5.282;2022-12-07T16:02:33;4.63;;;4.07;;
27666;SDS011;15074;50.940;5.282;2022-12-07T16:04:59;5.63;;;4.13;;
27666;SDS011;15074;50.940;5.282;2022-12-07T16:07:25;4.20;;;3.60;;
27666;SDS011;15074;50.940;5.282;2022-12-07T16:09:52;4.95;;;3.78;;
27666;SDS011;15074;50.940;5.282;2022-12-07T16:12:17;4.22;;;3.50;;
27666;SDS011;15074;50.940;5.282;2022-12-07T16:14:43;4.35;;;3.58;;
27666;SDS011;15074;50.940;5.282;2022-12-07T16:17:10;4.60;;;2.85;;
27666;SDS011;15074;50.940;5.282;2022-12-07T16:19:36;4.72;;;3.33;;
27666;SDS011;15074;50.940;5.282;2022-12-07T16:22:02;4.28;;;3.20;;
27666;SDS011;15074;50.940;5.282;2022-12-07T16:24:28;3.63;;;2.92;;
27666;SDS011;15074;50.940;5.282;2022-12-07T16:26:54;3.05;;;2.75;;
27666;SDS011;15074;50.940;5.282;2022-12-07T16:29:21;7.30;;;4.60;;
27666;SDS011;15074;50.940;5.282;2022-12-07T16:31:47;12.68;;;8.43;;
27666;SDS011;15074;50.940;5.282;2022-12-07T16:34:13;19.83;;;10.82;;
27666;SDS011;15074;50.940;5.282;2022-12-07T16:36:39;8.32;;;6.55;;
27666;SDS011;15074;50.940;5.282;2022-12-07T16:39:05;6.22;;;5.45;;
27666;SDS011;15074;50.940;5.282;2022-12-07T16:41:31;7.75;;;5.47;;
27666;SDS011;15074;50.940;5.282;2022-12-07T16:43:57;5.93;;;4.57;;
27666;SDS011;15074;50.940;5.282;2022-12-07T16:46:26;10.13;;;5.35;;
27666;SDS011;15074;50.940;5.282;2022-12-07T16:48:52;8.57;;;7.03;;